createdAt,value
2017-04-22T09:47:16.136Z,12.70
2017-04-22T09:48:13.684Z,12.80
2017-04-22T09:49:11.055Z,12.90
2017-04-22T09:50:08.481Z,13.00
2017-04-22T09:51:06.157Z,12.90
2017-04-22T09:52:03.692Z,12.90
2017-04-22T09:53:01.278Z,12.80
2017-04-22T09:53:58.882Z,12.60
2017-04-22T09:58:14.192Z,12.60
2017-04-22T09:59:11.843Z,12.50
2017-04-22T10:00:10.259Z,12.50
2017-04-22T10:01:09.297Z,12.40
2017-04-22T10:02:08.797Z,12.40
2017-04-22T10:03:06.291Z,12.40
2017-04-22T10:04:05.385Z,12.50
2017-04-22T10:05:03.210Z,12.60
2017-04-22T10:06:03.921Z,12.60
2017-04-22T10:07:01.501Z,12.60
2017-04-22T10:08:00.137Z,12.70
2017-04-22T10:08:59.169Z,12.40
2017-04-22T10:09:57.180Z,12.40
2017-04-22T10:10:55.766Z,12.40
2017-04-22T10:11:53.094Z,12.30
2017-04-22T10:12:50.514Z,12.30
2017-04-22T10:13:49.586Z,12.10
2017-04-22T10:14:47.150Z,12.00
2017-04-22T10:15:45.266Z,11.90
2017-04-22T10:16:42.615Z,11.90
2017-04-22T10:17:41.671Z,12.00
2017-04-22T10:18:39.981Z,12.10
2017-04-22T10:19:37.993Z,12.00
2017-04-22T10:20:35.468Z,11.90
2017-04-22T10:21:34.326Z,12.00
2017-04-22T10:22:31.802Z,12.00
2017-04-22T10:23:29.824Z,11.90
2017-04-22T10:24:28.113Z,11.90
2017-04-22T10:25:27.790Z,11.80
2017-04-22T10:26:25.217Z,11.70
2017-04-22T10:27:22.616Z,11.70
2017-04-22T10:28:19.977Z,11.90
2017-04-22T10:29:18.046Z,12.20
2017-04-22T10:30:15.429Z,12.10
2017-04-22T10:31:13.142Z,12.10
2017-04-22T10:32:10.492Z,12.30
2017-04-22T10:33:09.144Z,12.50
2017-04-22T10:34:08.094Z,12.50
2017-04-22T10:35:06.084Z,12.50
2017-04-22T10:36:04.161Z,12.90
2017-04-22T10:37:02.321Z,13.00
2017-04-22T10:37:59.974Z,13.00
2017-04-22T10:38:57.343Z,13.10
2017-04-22T10:39:55.662Z,13.10
2017-04-22T10:40:53.990Z,12.90
2017-04-22T10:41:51.366Z,13.00
2017-04-22T10:42:49.781Z,13.20
2017-04-22T10:43:47.116Z,13.30
2017-04-22T10:44:45.221Z,13.40
2017-04-22T10:45:43.213Z,13.50
2017-04-22T10:46:42.149Z,13.50
2017-04-22T10:47:40.066Z,13.50
2017-04-22T10:48:39.016Z,13.20
2017-04-22T10:49:36.434Z,13.20
2017-04-22T10:50:34.617Z,13.10
2017-04-22T10:51:31.948Z,13.10
2017-04-22T10:52:29.383Z,13.20
2017-04-22T10:53:28.790Z,13.30
2017-04-22T10:54:26.714Z,13.30
2017-04-22T10:55:24.041Z,13.30
2017-04-22T10:56:22.293Z,13.40
2017-04-22T10:57:20.228Z,13.40
2017-04-22T10:58:18.919Z,13.30
2017-04-22T10:59:16.875Z,13.30
2017-04-22T11:00:15.710Z,13.40
2017-04-22T11:01:14.359Z,13.30
2017-04-22T11:02:11.884Z,13.30
2017-04-22T11:03:09.267Z,13.40
2017-04-22T11:04:06.657Z,13.40
2017-04-22T11:05:04.679Z,13.40
2017-04-22T11:06:02.025Z,13.20
2017-04-22T11:06:59.465Z,12.90
2017-04-22T11:07:58.499Z,12.70
2017-04-22T11:08:55.897Z,12.60
2017-04-22T11:09:53.995Z,12.50
2017-04-22T11:10:52.005Z,12.50
2017-04-22T11:11:49.411Z,12.30
2017-04-22T11:12:46.834Z,12.20
2017-04-22T11:13:44.899Z,12.10
2017-04-22T11:14:46.487Z,11.90
2017-04-22T11:15:43.840Z,11.70
2017-04-22T11:16:41.358Z,11.50
2017-04-22T11:17:39.544Z,11.30
2017-04-22T11:18:36.876Z,11.20
2017-04-22T11:19:34.207Z,11.20
2017-04-22T11:20:31.569Z,11.20
2017-04-22T11:21:28.949Z,11.30
2017-04-22T11:22:27.254Z,11.30
2017-04-22T11:23:24.689Z,11.40
2017-04-22T11:24:22.038Z,11.40
2017-04-22T11:25:19.465Z,11.50
2017-04-22T11:26:16.838Z,11.60
2017-04-22T11:27:14.398Z,11.70
2017-04-22T11:28:12.625Z,11.70
2017-04-22T11:29:12.183Z,11.80
2017-04-22T11:30:10.798Z,11.90
2017-04-22T11:31:09.482Z,12.00
2017-04-22T11:32:06.868Z,12.10
2017-04-22T11:33:04.401Z,12.20
2017-04-22T11:34:02.506Z,12.20
2017-04-22T11:35:00.528Z,12.20
2017-04-22T11:35:58.921Z,12.20
2017-04-22T11:36:57.500Z,12.20
2017-04-22T11:37:54.879Z,12.20
2017-04-22T11:38:53.119Z,12.20
2017-04-22T11:39:50.520Z,12.10
2017-04-22T11:40:47.890Z,12.10
2017-04-22T11:41:45.854Z,12.10
2017-04-22T11:42:43.222Z,12.00
2017-04-22T11:43:42.181Z,11.90
2017-04-22T11:44:40.265Z,11.80
2017-04-22T11:45:37.600Z,11.70
2017-04-22T11:46:35.016Z,11.70
2017-04-22T11:47:32.369Z,11.40
2017-04-22T11:48:30.275Z,11.20
2017-04-22T11:49:27.681Z,11.00
2017-04-22T11:50:25.706Z,10.90
2017-04-22T11:51:23.091Z,10.80
2017-04-22T11:52:20.415Z,10.60
2017-04-22T11:53:19.109Z,10.50
2017-04-22T11:54:16.478Z,10.50
2017-04-22T11:55:13.942Z,10.40
2017-04-22T11:56:11.276Z,10.50
2017-04-22T11:57:09.235Z,10.40
2017-04-22T11:58:06.586Z,10.40
2017-04-22T11:59:03.961Z,10.50
2017-04-22T12:00:01.410Z,10.40
2017-04-22T12:00:58.783Z,10.60
2017-04-22T12:01:56.701Z,10.70
2017-04-22T12:02:54.030Z,10.70
2017-04-22T12:03:51.391Z,10.80
2017-04-22T12:04:49.362Z,10.90
2017-04-22T12:05:47.400Z,11.00
2017-04-22T12:06:45.703Z,11.10
2017-04-22T12:07:44.339Z,11.30
2017-04-22T12:08:43.095Z,11.60
2017-04-22T12:09:40.441Z,11.80
2017-04-22T12:10:39.622Z,12.00
2017-04-22T12:11:37.068Z,12.20
2017-04-22T12:12:34.479Z,12.30
2017-04-22T12:13:31.887Z,12.20
2017-04-22T12:14:29.266Z,12.00
2017-04-22T12:15:27.150Z,11.40
2017-04-22T12:16:24.473Z,11.20
2017-04-22T12:17:23.455Z,11.20
2017-04-22T12:18:20.793Z,11.30
2017-04-22T12:19:20.229Z,11.10
2017-04-22T12:20:19.894Z,11.00
2017-04-22T12:21:17.265Z,10.90
2017-04-22T12:22:14.686Z,10.80
2017-04-22T12:23:12.147Z,10.80
2017-04-22T12:24:10.409Z,10.70
2017-04-22T12:25:07.764Z,10.60
2017-04-22T12:26:05.876Z,10.60
2017-04-22T12:27:05.541Z,10.70
2017-04-22T12:28:03.565Z,10.80
2017-04-22T12:29:01.948Z,10.90
2017-04-22T12:30:00.132Z,10.90
2017-04-22T12:30:57.479Z,10.90
2017-04-22T12:31:56.306Z,10.90
2017-04-22T12:32:54.659Z,10.90
2017-04-22T12:33:52.698Z,11.00
2017-04-22T12:34:51.108Z,11.00
2017-04-22T12:35:49.288Z,11.10
2017-04-22T12:36:46.665Z,11.00
2017-04-22T12:37:44.753Z,11.00
2017-04-22T12:38:42.234Z,11.00
2017-04-22T12:39:39.573Z,11.00
2017-04-22T12:40:36.921Z,11.00
2017-04-22T12:41:35.830Z,11.00
2017-04-22T12:42:33.458Z,11.10
2017-04-22T12:43:31.891Z,11.00
2017-04-22T12:44:29.293Z,11.10
2017-04-22T12:45:26.675Z,11.20
2017-04-22T12:46:24.657Z,11.30
2017-04-22T12:47:22.001Z,11.40
2017-04-22T12:48:20.351Z,11.50
2017-04-22T12:49:18.482Z,11.60
2017-04-22T12:50:15.953Z,11.60
2017-04-22T12:51:14.762Z,11.50
2017-04-22T12:52:12.127Z,11.50
2017-04-22T12:53:09.462Z,11.70
2017-04-22T12:54:06.842Z,11.60
2017-04-22T12:55:05.661Z,11.70
2017-04-22T12:56:04.781Z,11.70
2017-04-22T12:57:03.148Z,11.90
2017-04-22T12:58:01.494Z,12.10
2017-04-22T12:58:58.850Z,12.30
2017-04-22T12:59:57.437Z,12.60
2017-04-22T13:00:57.819Z,12.70
2017-04-22T13:01:57.178Z,12.80
2017-04-22T13:02:57.042Z,12.70
2017-04-22T13:03:55.720Z,12.70
2017-04-22T13:04:53.833Z,12.50
2017-04-22T13:05:53.225Z,12.30
2017-04-22T13:06:50.589Z,12.20
2017-04-22T13:07:47.926Z,12.00
2017-04-22T13:08:45.266Z,12.00
2017-04-22T13:09:45.029Z,11.90
2017-04-22T13:10:43.136Z,11.90
2017-04-22T13:11:40.504Z,11.90
2017-04-22T13:12:37.850Z,11.90
2017-04-22T13:13:36.051Z,11.90
2017-04-22T13:14:34.989Z,12.10
2017-04-22T13:15:34.082Z,12.20
2017-04-22T13:16:31.561Z,12.50
2017-04-22T13:17:29.735Z,12.90
2017-04-22T13:18:27.316Z,12.80
2017-04-22T13:19:24.760Z,12.80
2017-04-22T13:20:22.244Z,12.70
2017-04-22T13:21:19.625Z,12.70
2017-04-22T13:22:17.057Z,12.90
2017-04-22T13:23:14.407Z,12.90
2017-04-22T13:24:11.806Z,12.70
2017-04-22T13:25:09.846Z,12.60
2017-04-22T13:26:07.227Z,12.60
2017-04-22T13:27:04.670Z,12.60
2017-04-22T13:28:02.012Z,12.70
2017-04-22T13:28:59.338Z,12.70
2017-04-22T13:29:56.779Z,12.50
2017-04-22T13:30:54.242Z,12.20
2017-04-22T13:31:51.579Z,12.10
2017-04-22T13:32:48.943Z,12.00
2017-04-22T13:33:46.316Z,12.10
2017-04-22T13:34:44.394Z,12.30
2017-04-22T13:35:41.825Z,12.30
2017-04-22T13:36:40.570Z,12.30
2017-04-22T13:37:38.082Z,12.40
2017-04-22T13:38:35.715Z,12.40
2017-04-22T13:39:33.090Z,12.50
2017-04-22T13:40:30.457Z,12.50
2017-04-22T13:41:27.964Z,12.50
2017-04-22T13:42:25.460Z,12.50
2017-04-22T13:43:23.689Z,12.50
2017-04-22T13:44:22.006Z,12.50
2017-04-22T13:45:19.661Z,12.60
2017-04-22T13:46:17.285Z,12.60
2017-04-22T13:47:15.827Z,12.50
2017-04-22T13:48:13.594Z,12.40
2017-04-22T13:49:11.160Z,12.20
2017-04-22T13:50:08.504Z,12.20
2017-04-22T13:51:06.100Z,12.30
2017-04-22T13:52:03.697Z,12.30
2017-04-22T13:53:01.252Z,12.40
2017-04-22T13:53:58.617Z,12.50
2017-04-22T13:54:56.222Z,12.80
2017-04-22T13:55:54.430Z,12.90
2017-04-22T13:56:51.807Z,12.90
2017-04-22T13:57:49.141Z,13.20
2017-04-22T13:58:46.672Z,13.20
2017-04-22T13:59:44.006Z,13.20
2017-04-22T14:00:41.336Z,13.10
2017-04-22T14:01:38.761Z,13.10
2017-04-22T14:02:36.306Z,12.90
2017-04-22T14:03:34.510Z,13.00
2017-04-22T14:04:32.050Z,13.20
2017-04-22T14:05:29.542Z,13.10
2017-04-22T14:06:27.697Z,13.20
2017-04-22T14:07:25.351Z,13.20
2017-04-22T14:08:22.750Z,13.40
2017-04-22T14:09:20.312Z,13.40
2017-04-22T14:10:18.530Z,13.20
2017-04-22T14:11:16.860Z,13.20
2017-04-22T14:12:15.367Z,13.10
2017-04-22T14:13:13.853Z,13.10
2017-04-22T14:14:12.077Z,13.00
2017-04-22T14:15:10.284Z,13.00
2017-04-22T14:16:08.665Z,13.00
2017-04-22T14:17:06.855Z,13.00
2017-04-22T14:18:04.377Z,13.10
2017-04-22T14:19:02.750Z,13.10
2017-04-22T14:20:00.334Z,13.00
2017-04-22T14:20:57.788Z,13.00
2017-04-22T14:21:55.295Z,12.90
2017-04-22T14:22:52.978Z,13.00
2017-04-22T14:23:50.410Z,12.70
2017-04-22T14:24:48.158Z,12.40
2017-04-22T14:25:46.387Z,12.20
2017-04-22T14:26:43.884Z,12.20
2017-04-22T14:27:41.550Z,12.20
2017-04-22T14:28:39.036Z,12.10
2017-04-22T14:29:36.371Z,12.10
2017-04-22T14:30:34.493Z,12.30
2017-04-22T14:31:32.832Z,12.40
2017-04-22T14:32:30.383Z,12.40
2017-04-22T14:33:28.467Z,12.50
2017-04-22T14:34:26.626Z,12.50
2017-04-22T14:35:24.167Z,12.40
2017-04-22T14:36:22.584Z,12.60
2017-04-22T14:37:20.028Z,12.70
2017-04-22T14:38:17.666Z,12.40
2017-04-22T14:39:15.128Z,12.40
2017-04-22T14:40:13.037Z,12.40
2017-04-22T14:41:10.526Z,12.50
2017-04-22T14:42:08.723Z,12.70
2017-04-22T14:43:06.137Z,12.70
2017-04-22T14:44:03.666Z,12.80
2017-04-22T14:45:01.598Z,13.00
2017-04-22T14:45:59.343Z,12.90
2017-04-22T14:46:56.799Z,12.90
2017-04-22T14:47:54.382Z,12.80
2017-04-22T14:48:51.931Z,12.80
2017-04-22T14:49:49.528Z,12.80
2017-04-22T14:50:47.057Z,12.80
2017-04-22T14:51:44.769Z,12.80
2017-04-22T14:52:42.990Z,13.10
2017-04-22T14:53:40.354Z,13.00
2017-04-22T14:54:37.901Z,13.00
2017-04-22T14:55:35.443Z,12.80
2017-04-22T14:56:32.937Z,12.80
2017-04-22T14:57:31.486Z,12.60
2017-04-22T14:58:28.892Z,12.50
2017-04-22T14:59:27.626Z,12.30
2017-04-22T15:00:24.756Z,12.10
2017-04-22T15:01:22.496Z,11.80
2017-04-22T15:02:19.917Z,11.80
2017-04-22T15:03:17.362Z,11.60
2017-04-22T15:04:15.026Z,11.60
2017-04-22T15:05:13.349Z,11.70
2017-04-22T15:06:10.930Z,11.70
2017-04-22T15:07:08.310Z,11.80
2017-04-22T15:08:05.684Z,11.90
2017-04-22T15:09:04.179Z,11.80
2017-04-22T15:10:02.825Z,11.80
2017-04-22T15:11:00.300Z,11.70
2017-04-22T15:11:57.833Z,11.60
2017-04-22T15:12:56.387Z,11.50
2017-04-22T15:13:54.117Z,11.50
2017-04-22T15:14:52.753Z,11.60
2017-04-22T15:15:50.377Z,11.80
2017-04-22T15:16:47.627Z,11.80
2017-04-22T15:17:45.622Z,11.80
2017-04-22T15:18:42.420Z,11.80
2017-04-22T15:19:39.789Z,11.90
2017-04-22T15:20:38.903Z,11.90
2017-04-22T15:21:36.363Z,11.80
2017-04-22T15:22:33.940Z,11.90
2017-04-22T15:23:31.698Z,11.90
2017-04-22T15:24:29.066Z,11.80
2017-04-22T15:25:27.303Z,11.70
2017-04-22T15:26:25.477Z,11.70
2017-04-22T15:27:23.528Z,11.70
2017-04-22T15:28:20.912Z,11.70
2017-04-22T15:29:20.001Z,11.60
2017-04-22T15:30:20.456Z,11.60
2017-04-22T15:31:19.750Z,11.40
2017-04-22T15:32:19.133Z,11.30
2017-04-22T15:33:18.029Z,11.20
2017-04-22T15:34:17.045Z,11.20
2017-04-22T15:35:16.215Z,11.10
2017-04-22T15:36:15.911Z,11.10
2017-04-22T15:37:14.918Z,11.10
2017-04-22T15:38:12.497Z,11.10
2017-04-22T15:39:09.723Z,11.20
2017-04-22T15:40:07.196Z,11.10
2017-04-22T15:41:04.711Z,11.20
2017-04-22T15:42:02.615Z,11.30
2017-04-22T15:42:59.729Z,11.30
2017-04-22T15:45:27.552Z,11.40
2017-04-22T15:46:43.391Z,11.40
2017-04-22T15:47:52.941Z,11.50
2017-04-22T15:48:50.220Z,11.50
2017-04-22T15:49:47.544Z,11.40
2017-04-22T15:50:48.493Z,11.60
2017-04-22T15:51:47.053Z,11.70
2017-04-22T15:52:46.152Z,11.70
2017-04-22T15:53:45.156Z,11.80
2017-04-22T15:54:41.288Z,11.90
2017-04-22T15:55:38.867Z,11.80
2017-04-22T15:56:36.119Z,11.70
2017-04-22T15:57:34.950Z,11.70
2017-04-22T15:58:33.238Z,11.70
2017-04-22T15:59:31.811Z,11.70
2017-04-22T16:00:28.658Z,11.60
2017-04-22T16:01:26.409Z,11.40
2017-04-22T16:02:23.491Z,11.30
2017-04-22T16:03:20.997Z,11.30
2017-04-22T16:04:18.461Z,11.30
2017-04-22T16:05:15.855Z,11.40
2017-04-22T16:06:13.443Z,11.30
2017-04-22T16:07:11.252Z,11.20
2017-04-22T16:08:08.603Z,11.20
2017-04-22T16:09:06.784Z,11.30
2017-04-22T16:10:04.903Z,11.20
2017-04-22T16:11:01.564Z,11.10
2017-04-22T16:11:58.860Z,11.20
2017-04-22T16:12:56.347Z,11.00
2017-04-22T16:13:53.717Z,11.00
2017-04-22T16:14:51.427Z,10.80
2017-04-22T16:15:49.491Z,10.70
2017-04-22T16:16:47.486Z,10.60
2017-04-22T16:17:45.227Z,10.60
2017-04-22T16:18:42.392Z,10.50
2017-04-22T16:19:40.153Z,10.40
2017-04-22T16:20:37.982Z,10.50
2017-04-22T16:21:34.883Z,10.40
2017-04-22T16:22:32.456Z,10.50
2017-04-22T16:23:30.514Z,10.40
2017-04-22T16:24:27.908Z,10.50
2017-04-22T16:25:26.347Z,10.50
2017-04-22T16:26:23.778Z,10.50
2017-04-22T16:27:23.846Z,10.40
2017-04-22T16:28:18.848Z,10.50
2017-04-22T16:29:16.446Z,10.50
2017-04-22T16:30:14.561Z,10.40
2017-04-22T16:31:11.851Z,10.30
2017-04-22T16:32:08.670Z,10.40
2017-04-22T16:33:06.195Z,10.30
2017-04-22T16:34:03.284Z,10.30
2017-04-22T16:35:00.792Z,10.30
2017-04-22T16:36:00.380Z,10.30
2017-04-22T16:36:56.674Z,10.30
2017-04-22T16:37:54.727Z,10.30
2017-04-22T16:38:52.124Z,10.30
2017-04-22T16:39:49.421Z,10.30
2017-04-22T16:40:47.133Z,10.30
2017-04-22T16:41:44.590Z,10.30
2017-04-22T16:42:41.898Z,10.30
2017-04-22T16:43:40.225Z,10.30
2017-04-22T16:44:37.622Z,10.30
2017-04-22T16:45:34.886Z,10.20
2017-04-22T16:46:34.908Z,10.20
2017-04-22T16:47:29.854Z,10.10
2017-04-22T16:48:27.433Z,10.10
2017-04-22T16:49:24.825Z,10.10
2017-04-22T16:50:22.423Z,10.10
2017-04-22T16:51:19.714Z,10.00
2017-04-22T16:52:19.730Z,10.00
2017-04-22T16:53:14.690Z,9.90
2017-04-22T16:54:12.025Z,9.90
2017-04-22T16:55:09.447Z,9.80
2017-04-22T16:56:07.012Z,9.70
2017-04-22T16:57:04.977Z,9.80
2017-04-22T16:58:01.523Z,9.70
2017-04-22T16:58:59.040Z,9.70
2017-04-22T16:59:56.606Z,9.60
2017-04-22T17:00:54.096Z,9.60
2017-04-22T17:01:51.304Z,9.50
2017-04-22T17:02:50.011Z,9.60
2017-04-22T17:03:47.399Z,9.60
2017-04-22T17:04:45.273Z,9.50
2017-04-22T17:05:42.557Z,9.50
2017-04-22T17:06:39.965Z,9.40
2017-04-22T17:07:37.544Z,9.40
2017-04-22T17:08:34.786Z,9.40
2017-04-22T17:09:32.269Z,9.40
2017-04-22T17:10:30.063Z,9.40
2017-04-22T17:11:27.332Z,9.40
2017-04-22T17:12:25.329Z,9.40
2017-04-22T17:13:22.177Z,9.40
2017-04-22T17:14:19.446Z,9.40
2017-04-22T17:15:16.820Z,9.40
2017-04-22T17:16:14.373Z,9.40
2017-04-22T17:17:12.376Z,9.40
2017-04-22T17:18:09.081Z,9.40
2017-04-22T17:19:08.340Z,9.30
2017-04-22T17:20:05.960Z,9.30
2017-04-22T17:21:02.996Z,9.30
2017-04-22T17:22:00.966Z,9.30
2017-04-22T17:22:59.521Z,9.30
2017-04-22T17:23:56.590Z,9.30
2017-04-22T17:24:55.272Z,9.30
2017-04-22T17:25:53.013Z,9.30
2017-04-22T17:26:50.711Z,9.40
2017-04-22T17:27:48.530Z,9.40
2017-04-22T17:28:46.378Z,9.30
2017-04-22T17:29:44.067Z,9.30
2017-04-22T17:30:42.268Z,9.30
2017-04-22T17:31:40.380Z,9.30
2017-04-22T17:32:38.445Z,9.30
2017-04-22T17:33:36.335Z,9.30
2017-04-22T17:34:34.767Z,9.30
2017-04-22T17:35:32.637Z,9.30
2017-04-22T17:36:30.472Z,9.30
2017-04-22T17:37:28.221Z,9.30
2017-04-22T17:38:25.632Z,9.30
2017-04-22T17:39:24.896Z,9.30
2017-04-22T17:40:21.793Z,9.30
2017-04-22T17:41:19.481Z,9.30
2017-04-22T17:42:17.331Z,9.40
2017-04-22T17:43:15.150Z,9.30
2017-04-22T17:44:13.568Z,9.30
2017-04-22T17:45:11.453Z,9.40
2017-04-22T17:46:09.196Z,9.30
2017-04-22T17:47:07.014Z,9.30
2017-04-22T17:48:05.598Z,9.30
2017-04-22T17:49:03.267Z,9.30
2017-04-22T17:50:03.380Z,9.40
2017-04-22T17:50:58.833Z,9.40
2017-04-22T17:51:56.133Z,9.40
2017-04-22T17:52:54.271Z,9.40
2017-04-22T17:53:51.359Z,9.30
2017-04-22T17:54:49.514Z,9.30
2017-04-22T17:55:46.593Z,9.30
2017-04-22T17:56:44.731Z,9.30
2017-04-22T17:57:43.313Z,9.20
2017-04-22T17:58:42.067Z,9.20
2017-04-22T17:59:38.841Z,9.20
2017-04-22T18:00:38.048Z,9.20
2017-04-22T18:01:34.841Z,9.20
2017-04-22T18:02:32.089Z,9.20
2017-04-22T18:03:30.068Z,9.20
2017-04-22T18:04:28.278Z,9.10
2017-04-22T18:05:26.206Z,9.10
2017-04-22T18:06:23.985Z,9.10
2017-04-22T18:07:22.093Z,9.00
2017-04-22T18:08:21.081Z,9.00
2017-04-22T18:09:16.793Z,9.00
2017-04-22T18:10:16.229Z,9.00
2017-04-22T18:11:14.914Z,8.90
2017-04-22T18:12:11.341Z,8.90
2017-04-22T18:13:09.490Z,8.90
2017-04-22T18:14:06.519Z,8.90
2017-04-22T18:15:04.173Z,8.80
2017-04-22T18:16:02.253Z,8.80
2017-04-22T18:17:01.418Z,8.80
2017-04-22T18:17:57.957Z,8.80
2017-04-22T18:18:55.903Z,8.80
2017-04-22T18:19:54.221Z,8.80
2017-04-22T18:20:52.678Z,8.70
2017-04-22T18:21:50.170Z,8.70
2017-04-22T18:22:47.339Z,8.70
2017-04-22T18:23:46.563Z,8.70
2017-04-22T18:24:43.837Z,8.70
2017-04-22T18:25:43.570Z,8.60
2017-04-22T18:26:40.274Z,8.50
2017-04-22T18:27:38.551Z,8.50
2017-04-22T18:28:36.143Z,8.50
2017-04-22T18:29:34.661Z,8.50
2017-04-22T18:30:31.739Z,8.50
2017-04-22T18:31:30.237Z,8.50
2017-04-22T18:32:27.391Z,8.50
2017-04-22T18:33:26.696Z,8.40
2017-04-22T18:34:23.389Z,8.50
2017-04-22T18:35:23.370Z,8.40
2017-04-22T18:36:19.495Z,8.40
2017-04-22T18:37:16.901Z,8.40
2017-04-22T18:38:14.291Z,8.30
2017-04-22T18:39:11.560Z,8.30
2017-04-22T18:40:10.081Z,8.30
2017-04-22T18:41:06.990Z,8.30
2017-04-22T18:42:04.784Z,8.30
2017-04-22T18:43:02.490Z,8.30
2017-04-22T18:43:59.759Z,8.20
2017-04-22T18:44:57.594Z,8.20
2017-04-22T18:45:55.129Z,8.20
2017-04-22T18:46:53.426Z,8.20
2017-04-22T18:47:50.481Z,8.20
2017-04-22T18:48:48.957Z,8.20
2017-04-22T18:49:48.728Z,8.10
2017-04-22T18:50:45.709Z,8.10
2017-04-22T18:51:41.590Z,8.10
2017-04-22T18:52:40.986Z,8.10
2017-04-22T18:53:36.523Z,8.00
2017-04-22T18:54:34.677Z,8.00
2017-04-22T18:55:32.073Z,8.00
2017-04-22T18:56:31.563Z,7.90
2017-04-22T18:57:27.700Z,7.90
2017-04-22T18:58:26.665Z,7.90
2017-04-22T18:59:23.532Z,7.90
2017-04-22T19:00:21.474Z,8.00
2017-04-22T19:01:20.459Z,7.90
2017-04-22T19:02:17.105Z,8.00
2017-04-22T19:03:16.329Z,8.00
2017-04-22T19:04:15.216Z,8.00
2017-04-22T19:05:11.870Z,7.90
2017-04-22T19:06:08.635Z,8.00
2017-04-22T19:07:08.516Z,8.00
2017-04-22T19:08:06.485Z,8.00
2017-04-22T19:09:05.372Z,8.00
2017-04-22T19:10:01.662Z,8.00
2017-04-22T19:10:58.935Z,8.00
2017-04-22T19:11:57.675Z,8.00
2017-04-22T19:12:57.045Z,8.00
2017-04-22T19:13:54.945Z,7.90
2017-04-22T19:14:52.660Z,7.70
2017-04-22T19:15:50.222Z,7.70
2017-04-22T19:16:48.268Z,7.60
2017-04-22T19:17:45.289Z,7.60
2017-04-22T19:18:43.510Z,7.50
2017-04-22T19:19:41.849Z,7.50
2017-04-22T19:20:38.863Z,7.40
2017-04-22T19:21:36.555Z,7.40
2017-04-22T19:22:33.913Z,7.40
2017-04-22T19:23:32.106Z,7.30
2017-04-22T19:24:28.728Z,7.30
2017-04-22T19:25:26.359Z,7.30
2017-04-22T19:26:25.330Z,7.20
2017-04-22T19:27:22.779Z,7.20
2017-04-22T19:28:22.510Z,7.20
2017-04-22T19:29:18.587Z,7.20
2017-04-22T19:30:16.990Z,7.10
2017-04-22T19:31:17.978Z,7.10
2017-04-22T19:32:14.414Z,7.10
2017-04-22T19:33:12.764Z,7.10
2017-04-22T19:34:11.199Z,7.10
2017-04-22T19:35:09.162Z,7.10
2017-04-22T19:36:06.095Z,7.10
2017-04-22T19:37:03.285Z,7.10
2017-04-22T19:38:03.448Z,7.10
2017-04-22T19:38:58.878Z,7.10
2017-04-22T19:39:56.413Z,7.20
2017-04-22T19:40:54.939Z,7.20
2017-04-22T19:41:52.888Z,7.20
2017-04-22T19:42:50.530Z,7.20
2017-04-22T19:43:46.938Z,7.20
2017-04-22T19:44:44.694Z,7.20
2017-04-22T19:45:43.902Z,7.30
2017-04-22T19:46:41.839Z,7.30
2017-04-22T19:47:40.289Z,7.20
2017-04-22T19:48:38.101Z,7.30
2017-04-22T19:49:34.093Z,7.30
2017-04-22T19:50:31.964Z,7.30
2017-04-22T19:51:29.822Z,7.30
2017-04-22T19:52:26.295Z,7.20
2017-04-22T19:53:25.433Z,7.30
2017-04-22T19:54:22.669Z,7.30
2017-04-22T19:55:19.253Z,7.20
2017-04-22T19:56:18.459Z,7.30
2017-04-22T19:57:15.607Z,7.20
2017-04-22T19:58:15.599Z,7.10
2017-04-22T19:59:10.328Z,7.20
2017-04-22T20:00:09.666Z,7.10
2017-04-22T20:01:05.668Z,7.10
2017-04-22T20:02:03.243Z,7.10
2017-04-22T20:03:04.644Z,7.10
2017-04-22T20:03:59.505Z,7.10
2017-04-22T20:04:55.953Z,7.10
2017-04-22T20:05:53.719Z,7.10
2017-04-22T20:06:53.909Z,7.10
2017-04-22T20:07:50.319Z,7.10
2017-04-22T20:08:46.273Z,7.00
2017-04-22T20:09:46.437Z,7.00
2017-04-22T20:10:42.689Z,7.00
2017-04-22T20:11:40.175Z,6.90
2017-04-22T20:12:37.399Z,6.90
2017-04-22T20:13:36.382Z,6.90
2017-04-22T20:14:34.124Z,6.80
2017-04-22T20:15:31.195Z,6.80
2017-04-22T20:16:28.708Z,6.90
2017-04-22T20:17:25.928Z,6.80
2017-04-22T20:18:23.851Z,6.80
2017-04-22T20:19:21.098Z,6.80
2017-04-22T20:20:18.956Z,6.80
2017-04-22T20:21:17.244Z,6.80
2017-04-22T20:22:14.494Z,6.80
2017-04-22T20:23:16.843Z,6.70
2017-04-22T20:24:10.345Z,6.80
2017-04-22T20:25:08.072Z,6.80
2017-04-22T20:26:05.993Z,6.80
2017-04-22T20:27:02.990Z,6.80
2017-04-22T20:28:02.127Z,6.80
2017-04-22T20:28:57.371Z,6.80
2017-04-22T20:29:55.942Z,6.80
2017-04-22T20:30:53.320Z,6.70
2017-04-22T20:31:52.341Z,6.70
2017-04-22T20:32:49.357Z,6.70
2017-04-22T20:33:48.341Z,6.70
2017-04-22T20:34:45.376Z,6.60
2017-04-22T20:35:42.627Z,6.70
2017-04-22T20:36:41.271Z,6.70
2017-04-22T20:37:39.754Z,6.70
2017-04-22T20:38:36.468Z,6.60
2017-04-22T20:39:33.691Z,6.60
2017-04-22T20:40:33.976Z,6.60
2017-04-22T20:41:30.856Z,6.50
2017-04-22T20:42:28.997Z,6.50
2017-04-22T20:43:28.730Z,6.50
2017-04-22T20:44:24.150Z,6.50
2017-04-22T20:45:24.006Z,6.50
2017-04-22T20:46:22.948Z,6.50
2017-04-22T20:47:21.600Z,6.40
2017-04-22T20:48:20.968Z,6.40
2017-04-22T20:49:17.543Z,6.50
2017-04-22T20:50:16.362Z,6.40
2017-04-22T20:51:11.865Z,6.40
2017-04-22T20:52:09.527Z,6.40
2017-04-22T20:53:06.957Z,6.40
2017-04-22T20:54:05.718Z,6.40
2017-04-22T20:55:05.953Z,6.40
2017-04-22T20:56:06.539Z,6.50
2017-04-22T20:57:00.114Z,6.50
2017-04-22T20:57:58.667Z,6.50
2017-04-22T20:58:56.693Z,6.50
2017-04-22T20:59:53.831Z,6.50
2017-04-22T21:00:51.610Z,6.60
2017-04-22T21:01:48.952Z,6.60
2017-04-22T21:02:47.039Z,6.60
2017-04-22T21:03:45.042Z,6.50
2017-04-22T21:04:42.441Z,6.60
2017-04-22T21:05:40.747Z,6.60
2017-04-22T21:06:38.117Z,6.60
2017-04-22T21:07:35.526Z,6.60
2017-04-22T21:08:32.946Z,6.70
2017-04-22T21:09:30.277Z,6.60
2017-04-22T21:10:28.544Z,6.60
2017-04-22T21:11:25.931Z,6.60
2017-04-22T21:12:23.266Z,6.60
2017-04-22T21:13:20.797Z,6.60
2017-04-22T21:14:18.987Z,6.60
2017-04-22T21:15:16.459Z,6.60
2017-04-22T21:16:14.465Z,6.60
2017-04-22T21:17:12.448Z,6.60
2017-04-22T21:18:09.783Z,6.60
2017-04-22T21:19:09.408Z,6.60
2017-04-22T21:20:07.710Z,6.60
2017-04-22T21:21:05.118Z,6.60
2017-04-22T21:22:02.480Z,6.60
2017-04-22T21:22:59.798Z,6.60
2017-04-22T21:23:57.154Z,6.60
2017-04-22T21:24:54.480Z,6.60
2017-04-22T21:25:51.896Z,6.60
2017-04-22T21:26:49.956Z,6.70
2017-04-22T21:27:48.054Z,6.70
2017-04-22T21:28:45.381Z,6.70
2017-04-22T21:29:42.730Z,6.70
2017-04-22T21:30:40.121Z,6.70
2017-04-22T21:31:37.569Z,6.70
2017-04-22T21:32:34.978Z,6.70
2017-04-22T21:33:32.841Z,6.70
2017-04-22T21:34:30.175Z,6.80
2017-04-22T21:35:28.538Z,6.80
2017-04-22T21:36:25.875Z,6.80
2017-04-22T21:37:23.970Z,6.80
2017-04-22T21:38:22.769Z,6.80
2017-04-22T21:39:20.880Z,6.80
2017-04-22T21:40:18.937Z,6.80
2017-04-22T21:41:16.284Z,6.80
2017-04-22T21:42:13.617Z,6.80
2017-04-22T21:43:11.749Z,6.80
2017-04-22T21:44:09.821Z,6.80
2017-04-22T21:45:07.915Z,6.70
2017-04-22T21:46:06.638Z,6.80
2017-04-22T21:47:03.987Z,6.70
2017-04-22T21:48:02.137Z,6.80
2017-04-22T21:48:59.527Z,6.70
2017-04-22T21:49:56.863Z,6.70
2017-04-22T21:50:54.207Z,6.80
2017-04-22T21:51:52.421Z,6.70
2017-04-22T21:52:49.749Z,6.70
2017-04-22T21:53:47.176Z,6.70
2017-04-22T21:54:44.506Z,6.70
2017-04-22T21:55:41.856Z,6.70
2017-04-22T21:56:39.962Z,6.70
2017-04-22T21:57:37.295Z,6.70
2017-04-22T21:58:35.420Z,6.70
2017-04-22T21:59:32.724Z,6.70
2017-04-22T22:00:30.749Z,6.70
2017-04-22T22:01:29.443Z,6.70
2017-04-22T22:02:26.846Z,6.70
2017-04-22T22:03:25.729Z,6.70
2017-04-22T22:04:23.953Z,6.70
2017-04-22T22:15:03.539Z,6.70
2017-04-22T22:16:00.911Z,6.70
2017-04-22T22:16:58.280Z,6.70
2017-04-22T22:17:57.040Z,6.70
2017-04-22T22:18:54.706Z,6.80
2017-04-22T22:19:52.073Z,6.80
2017-04-22T22:20:49.483Z,6.70
2017-04-22T22:21:46.821Z,6.70
2017-04-22T22:22:44.197Z,6.70
2017-04-22T22:23:42.078Z,6.70
2017-04-22T22:24:41.807Z,6.70
2017-04-22T22:25:39.951Z,6.70
2017-04-22T22:26:38.705Z,6.70
2017-04-22T22:27:36.033Z,6.60
2017-04-22T22:28:33.901Z,6.60
2017-04-22T22:29:31.760Z,6.70
2017-04-22T22:30:29.151Z,6.70
2017-04-22T22:31:27.602Z,6.70
2017-04-22T22:32:24.933Z,6.70
2017-04-22T22:33:22.299Z,6.70
2017-04-22T22:34:19.628Z,6.70
2017-04-22T22:35:18.242Z,6.70
2017-04-22T22:36:16.477Z,6.70
2017-04-22T22:37:13.801Z,6.60